createdAt,value
2019-02-16T00:01:57.534Z,99328.53
2019-02-16T00:04:29.522Z,99332.16
2019-02-16T00:07:01.518Z,99332.50
2019-02-16T00:09:33.576Z,99333.78
2019-02-16T00:12:05.626Z,99330.72
2019-02-16T00:14:37.632Z,99335.02
2019-02-16T00:17:09.611Z,99330.73
2019-02-16T00:19:41.579Z,99329.11
2019-02-16T00:22:13.592Z,99337.23
2019-02-16T00:24:45.710Z,99336.36
2019-02-16T00:27:17.698Z,99332.80
2019-02-16T00:29:49.711Z,99329.36
2019-02-16T00:32:21.678Z,99330.62
2019-02-16T00:34:53.692Z,99330.66
2019-02-16T00:37:25.684Z,99325.45
2019-02-16T00:39:57.656Z,99327.59
2019-02-16T00:42:29.664Z,99329.38
2019-02-16T00:45:01.637Z,99326.70
2019-02-16T00:47:33.626Z,99324.19
2019-02-16T00:50:05.720Z,99323.11
2019-02-16T00:52:37.694Z,99327.23
2019-02-16T00:55:09.675Z,99318.77
2019-02-16T00:57:41.660Z,99319.51
2019-02-16T01:00:13.809Z,99322.39
2019-02-16T01:02:45.838Z,99320.03
2019-02-16T01:05:17.808Z,99321.13
2019-02-16T01:07:49.815Z,99321.83
2019-02-16T01:10:21.792Z,99324.88
2019-02-16T01:12:53.851Z,99313.58
2019-02-16T01:15:25.855Z,99318.80
2019-02-16T01:17:57.841Z,99320.59
2019-02-16T01:20:29.801Z,99317.73
2019-02-16T01:23:01.789Z,99316.47
2019-02-16T01:25:33.760Z,99315.22
2019-02-16T01:28:05.729Z,99314.47
2019-02-16T01:30:37.701Z,99315.20
2019-02-16T01:33:09.695Z,99310.36
2019-02-16T01:35:41.709Z,99316.66
2019-02-16T01:38:13.704Z,99308.37
2019-02-16T01:40:45.701Z,99305.66
2019-02-16T01:43:17.730Z,99302.44
2019-02-16T01:45:49.720Z,99301.17
2019-02-16T01:48:21.721Z,99298.66
2019-02-16T01:50:53.711Z,99292.73
2019-02-16T01:53:26.548Z,99286.61
2019-02-16T01:55:58.542Z,99285.91
2019-02-16T01:58:30.538Z,99282.13
2019-02-16T02:01:02.490Z,99277.09
2019-02-16T02:03:34.577Z,99279.07
2019-02-16T02:06:06.570Z,99276.22
2019-02-16T02:08:38.564Z,99272.42
2019-02-16T02:11:10.527Z,99271.69
2019-02-16T02:13:42.525Z,99271.88
2019-02-16T02:16:14.523Z,99270.99
2019-02-16T02:18:46.526Z,99269.73
2019-02-16T02:21:18.540Z,99270.26
2019-02-16T02:23:50.498Z,99272.97
2019-02-16T02:26:22.480Z,99267.55
2019-02-16T02:28:54.445Z,99271.00
2019-02-16T02:31:26.447Z,99266.66
2019-02-16T02:33:58.417Z,99272.95
2019-02-16T02:36:30.409Z,99271.17
2019-02-16T02:39:04.019Z,99266.66
2019-02-16T02:41:36.040Z,99272.23
2019-02-16T02:44:08.008Z,99280.13
2019-02-16T02:46:40.043Z,99280.16
2019-02-16T02:49:12.010Z,99272.95
2019-02-16T02:51:51.654Z,99269.55
2019-02-16T02:54:17.901Z,99269.37
2019-02-16T02:56:49.879Z,99276.20
2019-02-16T02:59:21.865Z,99275.86
2019-02-16T03:01:53.829Z,99278.36
2019-02-16T03:04:25.792Z,99278.17
2019-02-16T03:06:57.819Z,99278.18
2019-02-16T03:09:29.768Z,99274.94
2019-02-16T03:12:01.741Z,99274.04
2019-02-16T03:14:33.751Z,99270.27
2019-02-16T03:17:05.733Z,99268.29
2019-02-16T03:19:37.706Z,99267.92
2019-02-16T03:22:09.687Z,99269.02
2019-02-16T03:24:41.660Z,99270.63
2019-02-16T03:27:49.004Z,99268.83
2019-02-16T03:31:04.622Z,99265.79
2019-02-16T03:33:50.346Z,99269.91
2019-02-16T03:37:12.959Z,99274.58
2019-02-16T03:39:45.920Z,99272.59
2019-02-16T03:42:17.908Z,99272.77
2019-02-16T03:44:49.863Z,99272.23
2019-02-16T03:47:21.859Z,99276.20
2019-02-16T03:49:53.836Z,99284.27
2019-02-16T03:52:25.835Z,99287.88
2019-02-16T03:54:57.790Z,99290.03
2019-02-16T03:57:29.814Z,99294.34
2019-02-16T04:00:01.784Z,99302.05
2019-02-16T04:02:33.747Z,99304.91
2019-02-16T04:05:05.968Z,99306.72
2019-02-16T04:07:37.960Z,99308.31
2019-02-16T04:10:09.947Z,99310.09
2019-02-16T04:12:41.972Z,99303.45
2019-02-16T04:15:13.934Z,99301.66
2019-02-16T04:17:46.020Z,99301.99
2019-02-16T04:20:18.007Z,99302.55
2019-02-16T04:22:49.999Z,99299.67
2019-02-16T04:25:22.037Z,99305.23
2019-02-16T04:27:53.993Z,99306.97
2019-02-16T04:30:25.981Z,99306.08
2019-02-16T04:32:57.941Z,99309.81
2019-02-16T04:35:29.931Z,99301.95
2019-02-16T04:38:01.896Z,99299.23
2019-02-16T04:40:33.887Z,99307.70
2019-02-16T04:43:05.889Z,99309.48
2019-02-16T04:45:37.887Z,99304.46
2019-02-16T04:48:09.854Z,99301.58
2019-02-16T04:50:41.826Z,99301.54
2019-02-16T04:53:13.780Z,99296.19
2019-02-16T04:55:45.780Z,99299.96
2019-02-16T04:58:17.726Z,99294.94
2019-02-16T05:00:49.725Z,99301.58
2019-02-16T05:03:21.762Z,99297.44
2019-02-16T05:05:53.746Z,99297.60
2019-02-16T05:08:25.696Z,99294.56
2019-02-16T05:10:57.668Z,99299.02
2019-02-16T05:13:29.652Z,99302.09
2019-02-16T05:16:01.625Z,99302.63
2019-02-16T05:18:33.566Z,99307.13
2019-02-16T05:21:05.561Z,99309.81
2019-02-16T05:23:37.522Z,99307.82
2019-02-16T05:26:09.503Z,99307.23
2019-02-16T05:28:41.470Z,99310.84
2019-02-16T05:31:13.477Z,99314.97
2019-02-16T05:33:45.448Z,99327.32
2019-02-16T05:36:17.436Z,99330.67
2019-02-16T05:38:49.404Z,99330.86
2019-02-16T05:41:21.428Z,99330.44
2019-02-16T05:43:53.399Z,99328.45
2019-02-16T05:46:25.387Z,99329.31
2019-02-16T05:48:57.357Z,99336.33
2019-02-16T05:51:29.451Z,99331.25
2019-02-16T05:54:01.427Z,99330.92
2019-02-16T05:56:33.412Z,99332.03
2019-02-16T05:59:05.369Z,99334.26
2019-02-16T06:01:37.360Z,99338.15
2019-02-16T06:04:09.371Z,99342.66
2019-02-16T06:06:41.368Z,99338.30
2019-02-16T06:09:13.349Z,99330.97
2019-02-16T06:11:45.334Z,99336.39
2019-02-16T06:14:17.341Z,99327.53
2019-02-16T06:16:49.364Z,99327.29
2019-02-16T06:19:21.311Z,99325.56
2019-02-16T06:21:53.348Z,99328.83
2019-02-16T06:24:25.340Z,99337.92
2019-02-16T06:26:57.310Z,99334.01
2019-02-16T06:29:29.318Z,99334.52
2019-02-16T06:32:01.299Z,99343.16
2019-02-16T06:34:33.309Z,99353.50
2019-02-16T06:37:24.556Z,99350.25
2019-02-16T06:39:56.543Z,99353.17
2019-02-16T06:42:28.545Z,99349.12
2019-02-16T06:45:00.527Z,99347.05
2019-02-16T06:47:32.517Z,99354.07
2019-02-16T06:50:04.591Z,99357.12
2019-02-16T06:52:36.599Z,99353.81
2019-02-16T06:55:08.556Z,99359.38
2019-02-16T06:57:43.996Z,99366.47
2019-02-16T07:00:18.523Z,99364.86
2019-02-16T07:02:50.532Z,99362.63
2019-02-16T07:05:22.499Z,99355.23
2019-02-16T07:07:54.515Z,99360.13
2019-02-16T07:10:26.510Z,99357.71
2019-02-16T07:12:58.516Z,99353.81
2019-02-16T07:15:30.560Z,99349.91
2019-02-16T07:18:12.030Z,99344.34
2019-02-16T07:20:44.051Z,99349.90
2019-02-16T07:23:22.141Z,99346.30
2019-02-16T07:25:49.986Z,99343.50
2019-02-16T07:28:22.016Z,99339.14
2019-02-16T07:30:54.014Z,99344.53
2019-02-16T07:33:26.031Z,99348.08
2019-02-16T07:35:58.023Z,99340.38
2019-02-16T07:38:30.029Z,99340.66
2019-02-16T07:41:02.085Z,99340.66
2019-02-16T07:43:53.681Z,99345.19
2019-02-16T07:46:54.291Z,99351.44
2019-02-16T07:49:32.762Z,99355.59
2019-02-16T07:52:24.340Z,99351.89
2019-02-16T07:55:03.583Z,99347.61
2019-02-16T07:57:56.382Z,99348.75
2019-02-16T08:00:37.721Z,99341.41
2019-02-16T08:03:17.724Z,99334.52
2019-02-16T08:06:08.139Z,99327.81
2019-02-16T08:08:58.781Z,99331.23
2019-02-16T08:11:43.509Z,99328.16
2019-02-16T08:14:33.659Z,99326.97
2019-02-16T08:17:28.278Z,99320.55
2019-02-16T08:20:19.838Z,99319.17
2019-02-16T08:23:10.059Z,99324.58
2019-02-16T08:25:49.759Z,99317.75
2019-02-16T08:28:36.499Z,99319.26
2019-02-16T08:31:31.144Z,99313.00
2019-02-16T08:34:22.737Z,99315.28
2019-02-16T08:37:06.623Z,99309.28
2019-02-16T08:40:07.587Z,99306.70
2019-02-16T08:43:03.075Z,99307.81
2019-02-16T08:46:00.603Z,99308.19
2019-02-16T08:48:52.524Z,99304.13
2019-02-16T08:51:42.751Z,99306.92
2019-02-16T08:54:34.382Z,99309.25
2019-02-16T08:57:26.230Z,99298.84
2019-02-16T09:00:17.809Z,99292.55
2019-02-16T09:02:59.324Z,99293.43
2019-02-16T09:06:03.114Z,99291.97
2019-02-16T09:09:07.274Z,99287.44
2019-02-16T09:12:07.884Z,99283.91
2019-02-16T09:14:58.193Z,99287.61
2019-02-16T09:17:49.884Z,99294.63
2019-02-16T09:20:34.243Z,99287.68
2019-02-16T09:23:24.819Z,99282.86
2019-02-16T09:26:25.670Z,99278.60
2019-02-16T09:29:13.114Z,99273.92
2019-02-16T09:32:13.750Z,99273.16
2019-02-16T09:34:54.718Z,99276.78
2019-02-16T09:37:52.308Z,99273.23
2019-02-16T09:40:42.470Z,99270.06
2019-02-16T09:43:39.709Z,99270.72
2019-02-16T09:46:31.320Z,99263.27
2019-02-16T09:49:21.581Z,99259.49
2019-02-16T09:52:13.146Z,99259.79
2019-02-16T09:55:02.229Z,99254.98
2019-02-16T09:57:58.059Z,99253.69
2019-02-16T10:00:47.334Z,99250.72
2019-02-16T10:03:41.791Z,99249.11
2019-02-16T10:06:41.937Z,99251.67
2019-02-16T10:09:19.903Z,99249.08
2019-02-16T10:12:07.575Z,99253.75
2019-02-16T10:14:57.845Z,99249.88
2019-02-16T10:17:37.913Z,99247.05
2019-02-16T10:20:23.691Z,99246.26
2019-02-16T10:23:13.165Z,99249.16
2019-02-16T10:26:09.765Z,99243.19
2019-02-16T10:29:07.434Z,99247.58
2019-02-16T10:31:45.170Z,99254.01
2019-02-16T10:34:27.850Z,99252.28
2019-02-16T10:37:31.811Z,99251.67
2019-02-16T10:40:21.150Z,99251.83
2019-02-16T10:43:18.527Z,99250.57
2019-02-16T10:46:08.781Z,99252.95
2019-02-16T10:48:49.053Z,99249.70
2019-02-16T10:51:31.680Z,99254.87
2019-02-16T10:54:16.951Z,99253.59
2019-02-16T10:57:07.041Z,99247.23
2019-02-16T10:59:48.799Z,99238.87
2019-02-16T11:02:39.475Z,99236.83
2019-02-16T11:05:43.400Z,99233.69
2019-02-16T11:08:22.573Z,99223.07
2019-02-16T11:11:04.245Z,99228.97
2019-02-16T11:13:54.854Z,99221.92
2019-02-16T11:16:45.342Z,99220.48
2019-02-16T11:19:40.591Z,99214.13
2019-02-16T11:22:28.099Z,99219.95
2019-02-16T11:25:17.058Z,99215.14
2019-02-16T11:28:01.988Z,99213.52
2019-02-16T11:30:43.618Z,99211.20
2019-02-16T11:33:22.008Z,99209.97
2019-02-16T11:36:12.251Z,99202.53
2019-02-16T11:38:55.345Z,99199.06
2019-02-16T11:41:41.353Z,99192.66
2019-02-16T11:44:22.416Z,99194.06
2019-02-16T11:47:29.091Z,99183.31
2019-02-16T11:50:17.005Z,99176.01
2019-02-16T11:53:07.455Z,99179.58
2019-02-16T11:56:11.373Z,99179.59
2019-02-16T11:59:02.823Z,99179.98
2019-02-16T12:01:53.522Z,99172.11
2019-02-16T12:04:33.814Z,99174.27
2019-02-16T12:07:14.863Z,99168.97
2019-02-16T12:10:05.469Z,99164.88
2019-02-16T12:12:55.023Z,99164.41
2019-02-16T12:15:47.815Z,99160.45
2019-02-16T12:18:35.155Z,99155.77
2019-02-16T12:21:25.615Z,99148.84
2019-02-16T12:24:17.048Z,99156.23
2019-02-16T12:27:11.636Z,99149.03
2019-02-16T12:30:15.446Z,99145.08
2019-02-16T12:33:05.770Z,99142.20
2019-02-16T12:35:59.146Z,99135.58
2019-02-16T12:38:49.377Z,99127.76
2019-02-16T12:41:39.891Z,99129.12
2019-02-16T12:44:25.022Z,99130.23
2019-02-16T12:47:10.926Z,99125.45
2019-02-16T12:49:50.362Z,99116.92
2019-02-16T12:52:51.538Z,99112.66
2019-02-16T12:55:42.121Z,99112.36
2019-02-16T12:58:32.625Z,99111.85
2019-02-16T13:01:27.007Z,99106.91
2019-02-16T13:04:22.829Z,99105.19
2019-02-16T13:07:17.262Z,99108.42
2019-02-16T13:09:58.383Z,99104.52
2019-02-16T13:12:52.733Z,99108.19
2019-02-16T13:15:38.857Z,99104.77
2019-02-16T13:18:29.075Z,99094.28
2019-02-16T13:21:20.637Z,99095.93
2019-02-16T13:24:14.982Z,99094.58
2019-02-16T13:27:18.887Z,99094.33
2019-02-16T13:30:13.247Z,99083.98
2019-02-16T13:33:26.016Z,99081.79
2019-02-16T13:36:22.292Z,99080.17
2019-02-16T13:39:29.043Z,99080.11
2019-02-16T13:42:26.629Z,99070.69
2019-02-16T13:45:23.909Z,99072.50
2019-02-16T13:48:08.266Z,99070.91
2019-02-16T13:50:49.021Z,99066.52
2019-02-16T13:53:33.581Z,99065.00
2019-02-16T13:56:34.126Z,99064.59
2019-02-16T13:59:12.640Z,99065.99
2019-02-16T14:01:57.693Z,99066.41
2019-02-16T14:04:55.478Z,99064.14
2019-02-16T14:07:50.126Z,99061.97
2019-02-16T14:10:40.049Z,99064.49
2019-02-16T14:13:37.338Z,99059.42
2019-02-16T14:16:27.686Z,99058.11
2019-02-16T14:18:59.668Z,99055.73
2019-02-16T14:21:31.711Z,99059.89
2019-02-16T14:24:03.798Z,99058.96
2019-02-16T14:26:35.823Z,99056.41
2019-02-16T14:29:07.784Z,99049.56
2019-02-16T14:31:39.819Z,99050.14
2019-02-16T14:34:11.805Z,99051.97
2019-02-16T14:39:42.949Z,99050.72
2019-02-16T14:42:14.945Z,99049.86
2019-02-16T14:44:47.072Z,99050.06
2019-02-16T14:47:19.065Z,99049.41
2019-02-16T14:49:51.060Z,99047.14
2019-02-16T14:52:23.101Z,99046.43
2019-02-16T14:54:55.128Z,99044.97
2019-02-16T14:57:27.170Z,99041.29
2019-02-16T14:59:59.209Z,99037.80
2019-02-16T15:02:31.207Z,99041.55
2019-02-16T15:05:03.205Z,99034.67
2019-02-16T15:07:35.275Z,99037.68
2019-02-16T15:10:08.182Z,99034.52
2019-02-16T15:12:40.205Z,99028.56
2019-02-16T15:15:12.267Z,99032.88
2019-02-16T15:17:44.278Z,99033.13
2019-02-16T15:20:16.305Z,99032.58
2019-02-16T15:22:48.461Z,99033.51
2019-02-16T15:25:20.498Z,99034.32
2019-02-16T15:27:52.543Z,99030.10
2019-02-16T15:30:24.527Z,99033.96
2019-02-16T15:32:56.550Z,99028.74
2019-02-16T15:35:28.540Z,99029.08
2019-02-16T15:38:20.104Z,99024.66
2019-02-16T15:40:52.132Z,99034.75
2019-02-16T15:43:24.184Z,99031.91
2019-02-16T15:45:56.223Z,99030.05
2019-02-16T15:48:28.289Z,99024.34
2019-02-16T15:51:00.315Z,99026.34
2019-02-16T15:53:32.329Z,99020.91
2019-02-16T15:56:10.590Z,99018.05
2019-02-16T15:58:38.359Z,99022.77
2019-02-16T16:01:10.470Z,99021.46
2019-02-16T16:03:42.561Z,99022.62
2019-02-16T16:06:34.100Z,99021.63
2019-02-16T16:09:25.676Z,99019.15
2019-02-16T16:12:17.245Z,99027.60
2019-02-16T16:18:08.340Z,99029.34
2019-02-16T16:23:47.013Z,99024.95
2019-02-16T16:26:38.577Z,99031.92
2019-02-16T16:29:30.155Z,99019.87
2019-02-16T16:32:21.718Z,99026.66
2019-02-16T16:35:13.346Z,99024.70
2019-02-16T16:38:04.937Z,99027.80
2019-02-16T16:40:48.184Z,99037.42
2019-02-16T16:43:39.827Z,99041.30
2019-02-16T16:46:31.476Z,99044.37
2019-02-16T16:49:23.049Z,99047.47
2019-02-16T16:55:12.174Z,99057.15
2019-02-16T16:58:03.729Z,99060.20
2019-02-16T17:00:46.154Z,99059.98
2019-02-16T17:03:37.718Z,99060.70
2019-02-16T17:06:29.321Z,99057.16
2019-02-16T17:09:20.892Z,99071.52
2019-02-16T17:12:12.485Z,99071.44
2019-02-16T17:15:04.073Z,99071.20
2019-02-16T17:17:55.666Z,99081.70
2019-02-16T17:20:47.264Z,99083.91
2019-02-16T17:23:38.854Z,99084.69
2019-02-16T17:26:23.904Z,99083.05
2019-02-16T17:29:15.498Z,99087.10
2019-02-16T17:31:58.677Z,99088.27
2019-02-16T17:34:50.306Z,99090.69
2019-02-16T17:37:41.959Z,99094.36
2019-02-16T17:40:32.892Z,99095.88
2019-02-16T17:43:23.317Z,99099.98
2019-02-16T17:46:27.336Z,99103.41
2019-02-16T17:49:12.701Z,99106.55
2019-02-16T17:52:07.047Z,99108.52
2019-02-16T17:55:13.848Z,99103.52
2019-02-16T17:58:02.090Z,99103.14
2019-02-16T18:01:08.945Z,99104.47
2019-02-16T18:04:03.477Z,99111.02
2019-02-16T18:06:57.877Z,99117.19
2019-02-16T18:09:48.163Z,99115.41
2019-02-16T18:12:42.791Z,99118.02
2019-02-16T18:15:46.520Z,99118.23
2019-02-16T18:18:36.720Z,99125.10
2019-02-16T18:21:19.435Z,99121.06
2019-02-16T18:24:12.061Z,99123.94
2019-02-16T18:27:02.296Z,99115.91
2019-02-16T18:29:52.825Z,99118.13
2019-02-16T18:32:43.413Z,99110.55
2019-02-16T18:35:33.793Z,99104.42
2019-02-16T18:38:20.768Z,99107.16
2019-02-16T18:41:21.658Z,99102.86
2019-02-16T18:44:16.052Z,99104.26
2019-02-16T18:47:07.689Z,99108.22
2019-02-16T18:49:58.165Z,99104.70
2019-02-16T18:52:41.606Z,99107.38
2019-02-16T18:55:36.386Z,99103.78
2019-02-16T18:58:26.585Z,99106.16
2019-02-16T19:01:12.440Z,99106.31
2019-02-16T19:03:57.669Z,99106.38
2019-02-16T19:06:43.133Z,99110.77
2019-02-16T19:09:22.032Z,99114.88
2019-02-16T19:12:13.663Z,99115.34
2019-02-16T19:15:11.297Z,99116.10
2019-02-16T19:18:02.875Z,99112.89
2019-02-16T19:20:54.472Z,99108.71
2019-02-16T19:23:44.660Z,99112.73
2019-02-16T19:26:34.684Z,99108.92
2019-02-16T19:29:25.152Z,99110.88
2019-02-16T19:32:19.896Z,99110.38
2019-02-16T19:35:14.245Z,99104.63
2019-02-16T19:37:57.933Z,99104.09
2019-02-16T19:40:48.591Z,99105.81
2019-02-16T19:43:55.579Z,99108.73
2019-02-16T19:46:45.681Z,99106.20
2019-02-16T19:49:43.236Z,99102.70
2019-02-16T19:52:25.410Z,99102.02
2019-02-16T19:55:01.746Z,99101.52
2019-02-16T19:58:08.653Z,99103.38
2019-02-16T20:01:03.031Z,99105.45
2019-02-16T20:03:46.358Z,99103.80
2019-02-16T20:06:43.951Z,99105.53
2019-02-16T20:09:21.274Z,99101.52
2019-02-16T20:12:15.901Z,99101.27
2019-02-16T20:15:04.653Z,99106.29
2019-02-16T20:17:51.355Z,99108.15
2019-02-16T20:20:46.160Z,99106.41
2019-02-16T20:23:43.594Z,99104.39
2019-02-16T20:26:35.197Z,99104.63
2019-02-16T20:29:18.503Z,99102.44
2019-02-16T20:32:07.810Z,99099.40
2019-02-16T20:34:59.478Z,99104.84
2019-02-16T20:37:39.328Z,99100.15
2019-02-16T20:40:30.961Z,99105.05
2019-02-16T20:43:28.619Z,99103.06
2019-02-16T20:46:32.250Z,99100.37
2019-02-16T20:49:23.925Z,99101.92
2019-02-16T20:52:18.550Z,99099.66
2019-02-16T20:55:02.294Z,99099.20
2019-02-16T20:58:06.001Z,99094.11
2019-02-16T21:00:54.463Z,99097.47
2019-02-16T21:03:46.051Z,99093.58
2019-02-16T21:06:33.616Z,99088.69
2019-02-16T21:09:37.425Z,99094.17
2019-02-16T21:12:17.428Z,99091.73
2019-02-16T21:15:15.202Z,99089.01
2019-02-16T21:18:12.630Z,99084.91
2019-02-16T21:21:07.121Z,99088.05
2019-02-16T21:23:57.718Z,99078.47
2019-02-16T21:26:52.639Z,99080.69
2019-02-16T21:29:39.665Z,99085.94
2019-02-16T21:32:37.647Z,99086.34
2019-02-16T21:35:32.054Z,99089.19
2019-02-16T21:38:13.817Z,99085.19
2019-02-16T21:41:17.795Z,99084.58
2019-02-16T21:44:03.051Z,99087.78
2019-02-16T21:46:57.718Z,99087.33
2019-02-16T21:49:53.890Z,99082.28
2019-02-16T21:52:44.282Z,99092.03
2019-02-16T21:55:25.482Z,99090.70
2019-02-16T21:58:20.118Z,99084.70
2019-02-16T22:01:15.404Z,99089.27
2019-02-16T22:04:16.252Z,99081.75
2019-02-16T22:07:06.859Z,99079.28
2019-02-16T22:10:01.485Z,99079.19
2019-02-16T22:12:59.041Z,99073.25
2019-02-16T22:15:31.085Z,99078.81
2019-02-16T22:18:03.183Z,99073.00
2019-02-16T22:20:35.183Z,99069.43
2019-02-16T22:23:07.258Z,99069.31
2019-02-16T22:25:39.294Z,99072.00
2019-02-16T22:28:18.210Z,99074.91
2019-02-16T22:30:45.303Z,99072.48
2019-02-16T22:33:17.310Z,99075.13
2019-02-16T22:35:49.337Z,99073.29
2019-02-16T22:38:21.365Z,99068.81
2019-02-16T22:40:53.391Z,99068.81
2019-02-16T22:43:25.461Z,99067.59
2019-02-16T22:45:57.488Z,99068.96
2019-02-16T22:48:29.479Z,99072.33
2019-02-16T22:51:01.544Z,99074.34
2019-02-16T22:53:33.575Z,99073.27
2019-02-16T22:56:05.626Z,99072.61
2019-02-16T22:58:37.662Z,99066.41
2019-02-16T23:01:09.994Z,99070.42
2019-02-16T23:03:41.981Z,99067.19
2019-02-16T23:06:14.255Z,99077.09
2019-02-16T23:08:46.261Z,99075.83
2019-02-16T23:11:18.304Z,99073.88
2019-02-16T23:13:50.367Z,99074.48
2019-02-16T23:16:22.338Z,99077.70
2019-02-16T23:18:54.325Z,99072.66
2019-02-16T23:21:26.389Z,99078.13
2019-02-16T23:23:58.398Z,99075.45
2019-02-16T23:26:30.429Z,99078.16
2019-02-16T23:29:02.428Z,99070.08
2019-02-16T23:31:34.465Z,99079.80
2019-02-16T23:34:06.460Z,99071.91
2019-02-16T23:36:38.505Z,99071.20
2019-02-16T23:39:11.363Z,99071.28
2019-02-16T23:41:43.396Z,99070.54
2019-02-16T23:44:15.411Z,99063.57
2019-02-16T23:46:47.399Z,99068.43
2019-02-16T23:49:19.416Z,99070.84
2019-02-16T23:51:51.470Z,99074.48
2019-02-16T23:54:23.472Z,99076.63
2019-02-16T23:56:55.498Z,99073.59
2019-02-16T23:59:27.477Z,99070.14
